Time;durP1;ratioP1;P1;durP2;ratioP2;P2;SDS_P1;SDS_P2;PMS_P1;PMS_P2;Temp;Humidity;BMP_temperature;BMP_pressure;BME280_temperature;BME280_humidity;BME280_pressure;Samples;Min_cycle;Max_cycle;Signal;HPM_P1;HPM_P2
2022/10/27 00:00:44;;;;;;;12.45;6.70;;;;;;;10.04;82.10;96577.77;1692289;84;21015;-62
2022/10/27 00:03:14;;;;;;;12.03;6.35;;;;;;;9.96;82.02;96576.91;1692995;84;21553;-62
2022/10/27 00:05:42;;;;;;;11.28;5.45;;;;;;;9.93;82.23;96569.01;1694272;83;21154;-62
2022/10/27 00:08:15;;;;;;;9.68;5.62;;;;;;;9.83;81.48;96575.16;1678475;84;21022;-62
2022/10/27 00:10:43;;;;;;;12.73;5.28;;;;;;;9.75;82.17;96583.03;1708349;83;21179;-62
2022/10/27 00:13:13;;;;;;;2.80;1.60;;;;;;;9.65;82.32;96582.18;1703228;83;21647;-61
2022/10/27 00:15:41;;;;;;;6.75;1.80;;;;;;;9.61;82.10;96588.75;1691428;84;20991;-62
2022/10/27 00:18:10;;;;;;;5.25;1.37;;;;;;;9.62;83.34;96583.91;1685489;84;21038;-62
2022/10/27 00:20:38;;;;;;;5.72;2.15;;;;;;;9.68;83.45;96581.30;1683306;84;21107;-62
2022/10/27 00:23:05;;;;;;;9.60;4.62;;;;;;;9.69;83.25;96590.50;1686670;84;21110;-62
2022/10/27 00:25:32;;;;;;;9.28;4.40;;;;;;;9.74;83.15;96586.56;1685141;84;21050;-62
2022/10/27 00:27:58;;;;;;;8.50;5.10;;;;;;;9.79;83.14;96591.39;1685774;84;21070;-62
2022/10/27 00:30:25;;;;;;;10.72;4.75;;;;;;;9.86;83.16;96589.66;1686745;84;21348;-62
2022/10/27 00:32:53;;;;;;;7.95;4.55;;;;;;;9.89;82.65;96585.69;1689544;83;21050;-62
2022/10/27 00:35:20;;;;;;;10.20;4.70;;;;;;;9.90;82.83;96587.02;1715617;83;21553;-62
2022/10/27 00:37:47;;;;;;;6.10;3.65;;;;;;;9.98;82.71;96589.66;1693751;85;21042;-62
2022/10/27 00:40:14;;;;;;;3.83;2.00;;;;;;;9.96;82.25;96579.55;1687295;83;21046;-62
2022/10/27 00:42:40;;;;;;;13.28;2.30;;;;;;;9.93;81.92;96580.88;1682166;85;21067;-62
2022/10/27 00:45:08;;;;;;;5.65;3.22;;;;;;;9.86;82.21;96589.66;1678790;85;21051;-62
2022/10/27 00:47:36;;;;;;;6.45;3.55;;;;;;;9.80;83.09;96581.72;1681927;85;21043;-62
2022/10/27 00:50:16;;;;;;;9.30;4.15;;;;;;;9.79;82.70;96579.53;1707469;83;21556;-62
2022/10/27 00:52:47;;;;;;;7.40;3.10;;;;;;;9.75;82.91;96577.35;1702259;83;21496;-62
2022/10/27 00:55:19;;;;;;;5.30;3.33;;;;;;;9.81;83.74;96577.78;1708847;83;21069;-62
2022/10/27 00:57:50;;;;;;;4.55;2.80;;;;;;;9.84;83.39;96579.55;1688604;85;21050;-62
2022/10/27 01:00:17;;;;;;;7.15;3.30;;;;;;;9.83;83.20;96573.84;1694880;84;21019;-61
2022/10/27 01:02:46;;;;;;;5.92;3.83;;;;;;;9.89;83.74;96574.70;1687860;84;21077;-62
2022/10/27 01:05:22;;;;;;;8.55;4.25;;;;;;;10.04;83.91;96582.17;1680833;85;21043;-62
2022/10/27 01:07:54;;;;;;;6.40;4.03;;;;;;;10.09;82.90;96579.97;1682429;84;21046;-62
2022/10/27 01:10:23;;;;;;;5.40;3.90;;;;;;;10.09;82.92;96577.78;1709471;83;21795;-62
2022/10/27 01:12:50;;;;;;;5.30;3.80;;;;;;;10.04;82.51;96580.41;1664416;85;21034;-62
2022/10/27 01:15:17;;;;;;;11.00;4.25;;;;;;;10.00;82.95;96573.81;1681052;84;21000;-62
2022/10/27 01:17:57;;;;;;;6.47;4.22;;;;;;;9.93;83.02;96576.91;1682514;84;21031;-62
2022/10/27 01:20:32;;;;;;;5.75;4.05;;;;;;;9.86;83.02;96579.11;1679122;85;21039;-62
2022/10/27 01:23:31;;;;;;;5.37;3.70;;;;;;;9.79;82.92;96582.62;1682167;85;21043;-62
2022/10/27 01:26:37;;;;;;;5.83;3.65;;;;;;;9.69;82.56;96580.41;1682978;85;21105;-62
2022/10/27 01:29:31;;;;;;;8.30;3.55;;;;;;;9.66;82.74;96579.09;1683012;85;21047;-62
2022/10/27 01:32:23;;;;;;;3.60;2.77;;;;;;;9.64;83.60;96581.72;1679452;85;21619;-62
2022/10/27 01:35:29;;;;;;;6.12;2.95;;;;;;;9.69;83.81;96587.00;1690574;83;21567;-62
2022/10/27 01:38:30;;;;;;;7.10;3.87;;;;;;;9.71;83.60;96585.25;1676294;84;21180;-62
2022/10/27 01:41:07;;;;;;;11.80;4.08;;;;;;;9.70;83.58;96583.47;1704925;83;21042;-62
2022/10/27 01:43:35;;;;;;;6.95;4.15;;;;;;;9.71;83.51;96589.20;1688950;85;21668;-62
2022/10/27 01:46:05;;;;;;;5.55;3.98;;;;;;;9.66;83.32;96593.14;1703005;84;21027;-62
2022/10/27 01:48:35;;;;;;;9.98;4.55;;;;;;;9.64;83.45;96601.48;1704352;83;21038;-62
2022/10/27 01:51:02;;;;;;;6.17;3.90;;;;;;;9.64;83.44;96607.20;1706360;83;21066;-62
2022/10/27 01:53:37;;;;;;;5.50;3.52;;;;;;;9.62;83.88;96598.41;1687007;84;21162;-62
2022/10/27 01:56:27;;;;;;;4.67;3.80;;;;;;;9.53;83.84;96598.84;1678274;84;21592;-62
2022/10/27 01:59:05;;;;;;;4.78;3.22;;;;;;;9.56;84.25;96599.28;1675039;84;21099;-62
2022/10/27 02:01:46;;;;;;;5.50;3.62;;;;;;;9.52;84.55;96595.78;1676549;85;21095;-62
2022/10/27 02:04:34;;;;;;;6.65;3.12;;;;;;;9.52;84.11;96598.83;1678764;85;21043;-62
2022/10/27 02:07:12;;;;;;;4.30;3.20;;;;;;;9.57;84.01;96597.52;1680828;84;21062;-61
2022/10/27 02:10:02;;;;;;;4.90;3.02;;;;;;;9.62;84.53;96597.09;1681604;85;21033;-62
2022/10/27 02:12:36;;;;;;;4.50;2.12;;;;;;;9.67;84.24;96599.29;1677923;84;21094;-62
2022/10/27 02:15:08;;;;;;;6.87;2.45;;;;;;;9.66;84.45;96597.55;1678876;84;21058;-61
2022/10/27 02:17:39;;;;;;;3.35;1.95;;;;;;;9.74;84.77;96593.15;1678757;84;21537;-62
2022/10/27 02:20:11;;;;;;;4.80;2.47;;;;;;;9.79;84.57;96592.72;1679085;85;21051;-62
2022/10/27 02:22:38;;;;;;;7.65;2.95;;;;;;;9.90;84.87;96593.61;1679227;85;21032;-61
2022/10/27 02:25:06;;;;;;;7.30;3.12;;;;;;;9.91;84.04;96589.21;1680356;85;21623;-63
2022/10/27 02:27:43;;;;;;;4.78;2.70;;;;;;;9.87;83.93;96592.72;1679111;85;21066;-62
2022/10/27 02:30:11;;;;;;;6.70;3.30;;;;;;;9.87;83.72;96600.17;1680740;85;21143;-62
2022/10/27 02:32:38;;;;;;;4.70;2.98;;;;;;;9.92;84.21;96602.37;1682260;85;21541;-62
2022/10/27 02:35:07;;;;;;;3.95;2.80;;;;;;;10.02;84.07;96599.30;1678591;85;21177;-62
2022/10/27 02:37:38;;;;;;;4.62;2.60;;;;;;;10.00;83.13;96606.77;1682346;85;21616;-62
2022/10/27 02:40:07;;;;;;;3.60;2.65;;;;;;;9.91;83.49;96599.76;1678000;85;21608;-62
2022/10/27 02:42:34;;;;;;;6.97;4.62;;;;;;;9.87;83.10;96608.53;1681005;85;21155;-62
2022/10/27 02:45:01;;;;;;;10.90;7.97;;;;;;;9.74;83.24;96610.28;1681848;85;21055;-62
2022/10/27 02:47:28;;;;;;;2.72;2.22;;;;;;;9.69;83.29;96606.31;1681378;85;21086;-62
2022/10/27 02:49:54;;;;;;;6.22;1.40;;;;;;;9.67;83.33;96614.66;1680012;85;21564;-62
2022/10/27 02:52:21;;;;;;;2.20;1.72;;;;;;;9.70;83.99;96612.46;1682515;84;21054;-62
2022/10/27 02:54:47;;;;;;;7.90;4.00;;;;;;;9.85;84.47;96607.23;1681593;84;21071;-62
2022/10/27 02:57:16;;;;;;;8.90;5.60;;;;;;;9.87;84.05;96607.21;1682052;85;21055;-62
2022/10/27 02:59:43;;;;;;;8.40;4.80;;;;;;;9.89;83.82;96613.38;1680217;84;21023;-62
2022/10/27 03:02:10;;;;;;;4.83;3.15;;;;;;;9.93;83.74;96613.38;1680575;85;21071;-62
2022/10/27 03:04:37;;;;;;;5.10;3.42;;;;;;;9.86;82.95;96623.48;1682236;85;21039;-62
2022/10/27 03:07:04;;;;;;;5.80;3.70;;;;;;;9.80;83.54;96623.89;1680671;85;21071;-62
2022/10/27 03:09:31;;;;;;;5.03;2.70;;;;;;;9.82;83.51;96629.61;1680149;85;21043;-62
2022/10/27 03:11:58;;;;;;;3.10;2.50;;;;;;;9.73;83.22;96624.35;1679310;84;21087;-62
2022/10/27 03:14:24;;;;;;;4.00;2.15;;;;;;;9.72;83.64;96630.48;1682288;85;21568;-62
2022/10/27 03:16:51;;;;;;;3.55;1.60;;;;;;;9.67;83.65;96625.20;1680536;85;21043;-62
2022/10/27 03:19:17;;;;;;;7.12;2.30;;;;;;;9.67;83.49;96630.91;1680066;85;21055;-62
2022/10/27 03:21:44;;;;;;;6.12;3.30;;;;;;;9.59;83.77;96628.71;1680765;85;21648;-62
2022/10/27 03:24:11;;;;;;;4.85;2.83;;;;;;;9.54;84.14;96630.02;1680553;84;21078;-62
2022/10/27 03:26:39;;;;;;;4.97;3.25;;;;;;;9.51;83.98;96627.38;1682311;85;21051;-62
2022/10/27 03:29:07;;;;;;;5.30;4.15;;;;;;;9.44;84.19;96636.14;1682152;85;21070;-62
2022/10/27 03:31:34;;;;;;;6.45;4.92;;;;;;;9.42;84.47;96635.25;1703919;83;21612;-63
2022/10/27 03:34:00;;;;;;;7.37;5.08;;;;;;;9.41;84.39;96633.50;1683945;85;21046;-62
2022/10/27 03:36:27;;;;;;;8.85;6.25;;;;;;;9.34;85.21;96636.55;1690104;84;21035;-62
2022/10/27 03:38:54;;;;;;;8.68;6.10;;;;;;;9.33;85.04;96641.38;1681042;85;21075;-62
2022/10/27 03:41:21;;;;;;;8.80;6.83;;;;;;;9.37;85.35;96639.19;1684581;85;21087;-62
2022/10/27 03:43:48;;;;;;;7.03;4.20;;;;;;;9.39;85.24;96644.02;1684229;85;21078;-62
2022/10/27 03:46:14;;;;;;;2.75;2.25;;;;;;;9.45;85.10;96645.38;1682196;85;21039;-62
2022/10/27 03:48:41;;;;;;;2.35;1.65;;;;;;;9.51;85.44;96636.16;1680604;85;21047;-62
2022/10/27 03:51:09;;;;;;;1.22;0.85;;;;;;;9.55;85.46;96641.02;1684622;85;21003;-62
2022/10/27 03:53:35;;;;;;;5.97;3.83;;;;;;;9.67;85.55;96646.72;1680372;85;21099;-62
2022/10/27 03:56:02;;;;;;;4.95;1.45;;;;;;;9.78;85.64;96649.37;1682001;85;21126;-62
2022/10/27 03:58:29;;;;;;;4.10;3.33;;;;;;;9.90;85.62;96647.66;1681907;85;21050;-62
2022/10/27 04:01:01;;;;;;;9.08;2.60;;;;;;;9.96;84.86;96642.82;1708674;83;21090;-63
2022/10/27 04:03:28;;;;;;;5.75;3.05;;;;;;;9.93;84.36;96653.38;1688827;85;21042;-62
2022/10/27 04:05:55;;;;;;;6.60;2.83;;;;;;;9.95;84.38;96646.31;1691743;84;21070;-62
2022/10/27 04:08:22;;;;;;;4.22;3.00;;;;;;;9.92;84.34;96648.51;1700974;84;21532;-61
2022/10/27 04:10:49;;;;;;;7.60;3.90;;;;;;;9.89;84.02;96658.19;1683749;84;21074;-62
2022/10/27 04:13:15;;;;;;;4.35;3.33;;;;;;;9.92;84.44;96648.51;1683041;85;21066;-62
2022/10/27 04:15:42;;;;;;;8.23;3.98;;;;;;;10.00;84.40;96659.50;1716279;83;21030;-62
2022/10/27 04:18:09;;;;;;;7.05;3.58;;;;;;;9.97;84.00;96650.71;1716199;83;21035;-62
2022/10/27 04:20:36;;;;;;;4.80;3.80;;;;;;;10.02;83.76;96649.40;1706791;83;21082;-62
2022/10/27 04:23:03;;;;;;;5.25;3.00;;;;;;;10.05;84.05;96650.71;1696730;83;21112;-62
2022/10/27 04:25:31;;;;;;;7.55;2.80;;;;;;;10.08;83.71;96645.88;1703590;83;21146;-62
2022/10/27 04:28:04;;;;;;;6.58;3.52;;;;;;;10.07;83.85;96651.59;1674073;83;21125;-62
2022/10/27 04:30:31;;;;;;;9.13;2.00;;;;;;;10.06;83.63;96659.53;1666651;85;21508;-62
2022/10/27 04:32:58;;;;;;;4.65;3.15;;;;;;;10.06;84.02;96655.57;1688477;84;21532;-61
2022/10/27 04:35:25;;;;;;;4.87;4.00;;;;;;;10.06;83.87;96660.40;1711529;83;21065;-61
2022/10/27 04:37:55;;;;;;;5.17;4.15;;;;;;;9.98;83.29;96666.11;1685547;84;21042;-62
2022/10/27 04:40:22;;;;;;;7.05;3.30;;;;;;;9.82;83.17;96662.56;1703657;83;21078;-62
2022/10/27 04:42:49;;;;;;;21.68;12.43;;;;;;;9.66;82.77;96660.34;1691539;84;21007;-61
2022/10/27 04:45:16;;;;;;;16.37;9.98;;;;;;;9.55;82.98;96659.45;1705245;83;21079;-62
2022/10/27 04:47:43;;;;;;;14.47;6.37;;;;;;;9.44;83.22;96660.72;1708904;83;21105;-62
2022/10/27 04:50:12;;;;;;;7.60;3.17;;;;;;;9.32;83.79;96668.58;1694341;83;21117;-62
2022/10/27 04:52:38;;;;;;;6.58;1.47;;;;;;;9.25;84.09;96665.06;1678517;84;21007;-62
2022/10/27 04:55:06;;;;;;;1.80;0.80;;;;;;;9.17;83.81;96664.16;1708250;84;21536;-61
2022/10/27 04:57:34;;;;;;;2.55;0.70;;;;;;;9.12;84.22;96666.31;1706917;84;21481;-62
2022/10/27 05:00:02;;;;;;;5.17;1.30;;;;;;;9.03;84.44;96669.35;1705662;83;21090;-62
2022/10/27 05:02:28;;;;;;;2.37;0.70;;;;;;;9.00;84.67;96664.52;1703318;83;21062;-62
2022/10/27 05:04:55;;;;;;;5.42;0.90;;;;;;;8.96;84.89;96670.19;1687951;83;21072;-62
2022/10/27 05:07:21;;;;;;;10.75;4.47;;;;;;;8.89;85.40;96672.34;1683477;84;21096;-62
2022/10/27 05:09:48;;;;;;;8.10;5.03;;;;;;;8.85;84.93;96674.09;1711364;83;21029;-62
2022/10/27 05:12:15;;;;;;;16.30;8.13;;;;;;;8.81;85.35;96672.74;1701019;83;21046;-62
2022/10/27 05:14:41;;;;;;;5.20;1.80;;;;;;;8.73;84.95;96684.55;1682004;84;21506;-62
2022/10/27 05:17:08;;;;;;;3.83;2.70;;;;;;;8.70;85.00;96683.66;1682007;85;21091;-62
2022/10/27 05:19:35;;;;;;;4.90;2.33;;;;;;;8.70;85.38;96682.34;1683355;85;21046;-62
2022/10/27 05:22:02;;;;;;;4.17;2.00;;;;;;;8.70;85.55;96689.80;1679228;85;21517;-62
2022/10/27 05:24:28;;;;;;;8.77;3.67;;;;;;;8.69;85.17;96697.66;1680849;85;21082;-62
2022/10/27 05:26:56;;;;;;;21.20;12.27;;;;;;;8.65;85.01;96694.15;1680186;85;21146;-62
2022/10/27 05:29:24;;;;;;;15.40;9.17;;;;;;;8.68;85.00;96699.42;1679050;85;21034;-62
2022/10/27 05:31:51;;;;;;;2.83;1.33;;;;;;;8.70;84.82;96705.58;1680797;85;21043;-62
2022/10/27 05:34:18;;;;;;;3.40;0.63;;;;;;;8.70;84.90;96707.34;1681911;84;21520;-63
2022/10/27 05:36:46;;;;;;;3.00;0.80;;;;;;;8.78;85.47;96710.89;1680748;85;21000;-62
2022/10/27 05:39:13;;;;;;;2.20;1.17;;;;;;;8.86;85.39;96714.00;1681947;85;21019;-63
2022/10/27 05:41:40;;;;;;;2.93;0.70;;;;;;;8.83;84.68;96710.04;1680166;85;21176;-62
2022/10/27 05:44:07;;;;;;;19.60;5.70;;;;;;;8.81;84.55;96715.72;1678999;85;21031;-62
2022/10/27 05:46:33;;;;;;;10.30;6.27;;;;;;;8.78;85.03;96715.71;1684236;85;21055;-61
2022/10/27 05:49:00;;;;;;;13.13;7.77;;;;;;;8.75;84.83;96718.77;1682346;85;21039;-62
2022/10/27 05:51:27;;;;;;;17.23;12.43;;;;;;;8.77;85.35;96718.32;1679231;85;21082;-62
2022/10/27 05:53:55;;;;;;;19.37;13.00;;;;;;;8.83;85.11;96728.47;1680323;85;21047;-62
2022/10/27 05:56:21;;;;;;;18.42;10.80;;;;;;;8.90;85.56;96726.77;1679994;84;21055;-62
2022/10/27 05:58:48;;;;;;;3.20;1.67;;;;;;;8.92;84.87;96724.12;1681955;84;21158;-62
2022/10/27 06:01:15;;;;;;;8.20;2.23;;;;;;;8.90;84.89;96727.20;1684292;85;21170;-62
2022/10/27 06:03:42;;;;;;;4.70;1.27;;;;;;;8.87;85.00;96725.44;1679601;85;21114;-62
2022/10/27 06:06:09;;;;;;;1.43;0.93;;;;;;;8.90;85.12;96728.08;1681570;83;21087;-61
2022/10/27 06:08:35;;;;;;;3.00;1.10;;;;;;;8.87;84.61;96735.52;1684125;85;21086;-62
2022/10/27 06:11:03;;;;;;;2.73;1.17;;;;;;;8.90;84.63;96735.97;1682569;85;21083;-62
2022/10/27 06:13:30;;;;;;;7.17;3.83;;;;;;;8.94;84.71;96739.49;1682579;85;21035;-62
2022/10/27 06:15:57;;;;;;;8.88;5.92;;;;;;;9.04;85.25;96745.25;1680650;85;21074;-62
2022/10/27 06:18:24;;;;;;;13.03;5.10;;;;;;;9.12;85.33;96745.30;1677681;84;21099;-62
2022/10/27 06:20:51;;;;;;;1.47;0.90;;;;;;;9.16;84.93;96740.06;1680300;85;21055;-62
2022/10/27 06:23:18;;;;;;;10.37;3.17;;;;;;;9.10;84.45;96745.31;1678876;85;21055;-62
2022/10/27 06:25:44;;;;;;;3.03;1.27;;;;;;;9.05;84.64;96746.59;1680253;84;21039;-62
2022/10/27 06:28:11;;;;;;;4.00;1.60;;;;;;;9.08;84.76;96741.78;1659328;84;21110;-62
2022/10/27 06:30:38;;;;;;;4.43;1.20;;;;;;;9.10;84.90;96746.18;1681963;83;21130;-62
2022/10/27 06:33:05;;;;;;;8.05;5.03;;;;;;;9.17;85.11;96744.89;1678914;85;21158;-62
2022/10/27 06:35:31;;;;;;;14.23;9.27;;;;;;;9.22;85.05;96750.64;1683991;84;21035;-62
2022/10/27 06:37:58;;;;;;;9.00;6.47;;;;;;;9.31;85.39;96745.84;1662857;85;21050;-62
2022/10/27 06:40:26;;;;;;;8.93;5.60;;;;;;;9.40;85.09;96750.26;1680171;85;21063;-62
2022/10/27 06:42:53;;;;;;;10.55;7.33;;;;;;;9.48;85.15;96750.75;1681590;85;21031;-62
2022/10/27 06:45:20;;;;;;;6.22;2.60;;;;;;;9.53;84.87;96740.24;1682551;84;21011;-62
2022/10/27 06:47:57;;;;;;;3.85;2.02;;;;;;;9.57;84.64;96743.31;1683191;84;21035;-61
2022/10/27 06:50:23;;;;;;;6.15;3.98;;;;;;;9.64;84.65;96746.86;1676976;85;21569;-62
2022/10/27 06:52:50;;;;;;;12.30;5.62;;;;;;;9.77;84.79;96742.51;1681708;85;20984;-62
2022/10/27 06:55:17;;;;;;;9.35;5.62;;;;;;;9.91;84.85;96739.03;1708664;82;21058;-62
2022/10/27 06:57:44;;;;;;;4.67;3.60;;;;;;;10.12;85.29;96736.87;1703363;83;21041;-62
2022/10/27 07:00:13;;;;;;;9.55;5.40;;;;;;;10.30;84.68;96736.48;1714506;83;21066;-62
2022/10/27 07:02:40;;;;;;;9.35;5.00;;;;;;;10.43;84.05;96741.33;1705375;83;21079;-62
2022/10/27 07:05:08;;;;;;;8.30;3.95;;;;;;;10.55;84.01;96730.33;1698958;83;21532;-62
2022/10/27 07:07:35;;;;;;;10.88;6.25;;;;;;;10.73;84.48;96732.08;1709412;83;21046;-62
2022/10/27 07:10:04;;;;;;;7.80;5.17;;;;;;;10.90;83.75;96737.79;1704387;83;21140;-62
2022/10/27 07:12:31;;;;;;;5.28;2.20;;;;;;;11.08;83.85;96735.10;1680898;85;21525;-62
2022/10/27 07:14:58;;;;;;;5.25;2.80;;;;;;;11.32;84.07;96736.81;1690330;84;21062;-62
2022/10/27 07:17:25;;;;;;;3.72;2.50;;;;;;;11.60;84.01;96736.71;1683142;84;21141;-62
2022/10/27 07:19:51;;;;;;;7.83;2.70;;;;;;;11.81;83.45;96735.27;1686915;84;21104;-62
2022/10/27 07:22:18;;;;;;;3.90;2.50;;;;;;;12.00;82.50;96741.84;1689144;84;21047;-62
2022/10/27 07:24:45;;;;;;;15.43;3.02;;;;;;;12.12;81.49;96731.19;1685095;83;21038;-62
2022/10/27 07:27:11;;;;;;;5.65;3.98;;;;;;;12.28;81.08;96743.86;1682646;84;21050;-62
2022/10/27 07:29:38;;;;;;;5.60;3.50;;;;;;;12.42;81.16;96739.32;1686983;84;21511;-62
2022/10/27 07:32:05;;;;;;;6.80;3.30;;;;;;;12.60;80.85;96738.75;1684131;84;21584;-62
2022/10/27 07:34:31;;;;;;;4.47;3.17;;;;;;;12.73;79.92;96744.40;1682705;84;21042;-62
2022/10/27 07:36:59;;;;;;;7.78;4.22;;;;;;;12.86;79.71;96743.84;1683145;84;21043;-62
2022/10/27 07:39:25;;;;;;;8.33;4.72;;;;;;;12.98;79.20;96744.59;1682240;85;21651;-62
2022/10/27 07:41:52;;;;;;;13.13;5.10;;;;;;;13.11;78.71;96745.36;1685213;85;21493;-62
2022/10/27 07:44:19;;;;;;;8.68;4.60;;;;;;;13.22;78.36;96745.23;1689432;84;21644;-62
2022/10/27 07:46:45;;;;;;;10.68;5.12;;;;;;;13.35;77.50;96746.88;1685045;84;21067;-62
2022/10/27 07:49:12;;;;;;;4.87;3.10;;;;;;;13.46;77.64;96750.77;1689554;84;21043;-62
2022/10/27 07:51:39;;;;;;;8.13;2.92;;;;;;;13.61;77.36;96746.60;1679291;83;21505;-62
2022/10/27 07:54:05;;;;;;;4.70;2.60;;;;;;;13.73;75.05;96754.84;1715829;83;21031;-62
2022/10/27 07:56:32;;;;;;;5.67;2.52;;;;;;;13.82;76.11;96744.58;1704254;83;21573;-62
2022/10/27 07:58:59;;;;;;;9.10;1.98;;;;;;;13.96;75.28;96751.02;1686297;85;21050;-62
2022/10/27 08:01:26;;;;;;;4.72;1.70;;;;;;;14.09;75.43;96752.63;1689217;84;21027;-62
2022/10/27 08:03:53;;;;;;;4.58;1.65;;;;;;;14.26;73.26;96761.23;1691887;84;21030;-62
2022/10/27 08:06:19;;;;;;;5.30;1.40;;;;;;;14.39;73.98;96755.28;1684496;84;21087;-62
2022/10/27 08:08:46;;;;;;;4.45;1.30;;;;;;;14.53;72.33;96762.16;1687516;83;21003;-62
2022/10/27 08:11:13;;;;;;;2.55;1.40;;;;;;;14.68;72.10;96759.29;1683508;84;21569;-62
2022/10/27 08:13:39;;;;;;;3.90;1.10;;;;;;;14.87;72.34;96758.09;1683542;84;21138;-62
2022/10/27 08:16:07;;;;;;;1.30;1.20;;;;;;;15.12;72.19;96756.34;1685932;84;21075;-62
2022/10/27 08:18:34;;;;;;;4.22;0.93;;;;;;;15.35;71.06;96754.13;1683270;84;21129;-62
2022/10/27 08:21:04;;;;;;;2.17;1.10;;;;;;;15.58;69.63;96753.69;1682442;85;21051;-62
2022/10/27 08:23:31;;;;;;;2.12;1.10;;;;;;;15.83;67.81;96749.23;1684341;84;21100;-63
2022/10/27 08:25:58;;;;;;;4.70;1.05;;;;;;;16.04;67.17;96746.56;1687545;84;21015;-62
2022/10/27 08:28:25;;;;;;;0.88;0.85;;;;;;;16.24;65.35;96751.45;1684215;83;21114;-62
2022/10/27 08:30:52;;;;;;;1.87;0.72;;;;;;;16.51;61.91;96754.41;1674999;84;21533;-62
2022/10/27 08:33:22;;;;;;;1.85;1.20;;;;;;;16.78;64.69;96764.88;1683073;84;21071;-62
2022/10/27 08:35:50;;;;;;;2.55;1.10;;;;;;;16.87;62.81;96754.00;1682445;84;21532;-62
2022/10/27 08:38:17;;;;;;;3.25;0.82;;;;;;;16.84;62.53;96756.75;1707578;83;21038;-62
2022/10/27 08:41:11;;;;;;;5.25;1.17;;;;;;;16.79;62.04;96763.52;1707736;83;21034;-62
2022/10/27 08:44:17;;;;;;;2.98;1.70;;;;;;;16.79;62.49;96759.52;1695469;83;21022;-61
2022/10/27 08:46:51;;;;;;;5.15;2.60;;;;;;;16.78;61.40;96761.78;1701519;83;21501;-62
2022/10/27 08:49:38;;;;;;;7.53;4.25;;;;;;;16.68;60.68;96767.31;1715483;83;21042;-62
2022/10/27 08:52:31;;;;;;;8.60;3.90;;;;;;;16.59;60.63;96761.76;1700105;83;21040;-62
2022/10/27 08:55:16;;;;;;;4.33;2.92;;;;;;;16.53;60.76;96765.88;1683760;85;21101;-62
2022/10/27 08:58:14;;;;;;;4.80;2.55;;;;;;;16.46;60.37;96772.29;1681429;84;21098;-62
2022/10/27 09:00:49;;;;;;;3.70;2.45;;;;;;;16.42;59.67;96771.00;1682044;85;21071;-62
2022/10/27 09:03:52;;;;;;;3.40;2.27;;;;;;;16.46;58.75;96770.95;1708813;83;21122;-62
2022/10/27 09:06:33;;;;;;;4.93;2.67;;;;;;;16.57;58.44;96768.91;1686274;83;21071;-62
2022/10/27 09:09:32;;;;;;;6.03;3.70;;;;;;;16.69;56.65;96767.75;1671608;85;21533;-62
2022/10/27 09:12:27;;;;;;;3.10;2.42;;;;;;;16.85;56.91;96764.69;1691699;84;21046;-62
2022/10/27 09:15:23;;;;;;;4.13;1.80;;;;;;;17.05;55.98;96759.32;1699012;83;21065;-62
2022/10/27 09:18:01;;;;;;;5.67;2.20;;;;;;;17.16;56.20;96763.03;1699445;83;21172;-62
2022/10/27 09:20:56;;;;;;;9.75;4.45;;;;;;;17.30;55.84;96762.23;1705991;83;21046;-62
2022/10/27 09:23:33;;;;;;;7.03;2.90;;;;;;;17.42;55.04;96759.70;1707563;83;21054;-62
2022/10/27 09:26:00;;;;;;;5.78;2.70;;;;;;;17.62;55.69;96764.03;1689751;83;21007;-62
2022/10/27 09:28:42;;;;;;;5.80;1.87;;;;;;;17.65;54.21;96763.94;1702769;83;21063;-62
2022/10/27 09:31:17;;;;;;;5.62;1.70;;;;;;;17.66;53.87;96759.47;1709065;83;21004;-61
2022/10/27 09:33:57;;;;;;;3.12;1.50;;;;;;;17.74;54.42;96762.82;1696461;83;21006;-62
2022/10/27 09:36:24;;;;;;;3.35;1.77;;;;;;;17.68;53.10;96751.83;1709819;83;21050;-62
2022/10/27 09:38:51;;;;;;;2.60;1.30;;;;;;;17.82;54.58;96750.16;1717509;83;21086;-62
2022/10/27 09:41:18;;;;;;;2.05;1.17;;;;;;;17.95;53.61;96757.34;1678610;85;21050;-62
2022/10/27 09:43:46;;;;;;;2.60;1.27;;;;;;;17.98;53.98;96753.25;1687954;84;21053;-62
2022/10/27 09:46:26;;;;;;;3.20;1.72;;;;;;;18.00;53.75;96748.74;1683330;83;21537;-62
2022/10/27 09:49:03;;;;;;;2.72;1.40;;;;;;;18.03;54.13;96752.65;1683635;83;21114;-62
2022/10/27 09:51:54;;;;;;;2.98;1.15;;;;;;;18.19;53.49;96749.52;1686750;84;21011;-62
2022/10/27 09:54:38;;;;;;;3.50;1.20;;;;;;;18.38;53.63;96748.05;1688779;84;21115;-62
2022/10/27 09:57:11;;;;;;;1.77;0.93;;;;;;;18.54;51.67;96739.94;1683573;84;21047;-62
2022/10/27 09:59:40;;;;;;;1.90;1.20;;;;;;;18.52;52.17;96736.91;1680226;84;21019;-62
2022/10/27 10:02:33;;;;;;;3.52;1.02;;;;;;;18.66;50.28;96736.02;1679881;84;21114;-62
2022/10/27 10:05:03;;;;;;;2.02;1.12;;;;;;;18.93;51.32;96735.61;1681336;85;21082;-62
2022/10/27 10:07:37;;;;;;;3.80;1.30;;;;;;;19.41;49.76;96732.17;1710859;83;21520;-62
2022/10/27 10:10:25;;;;;;;4.53;1.35;;;;;;;19.75;49.07;96724.28;1717439;83;21121;-62
2022/10/27 10:13:09;;;;;;;2.60;1.27;;;;;;;20.19;49.07;96731.13;1699156;83;21030;-62
2022/10/27 10:15:40;;;;;;;4.25;1.42;;;;;;;20.53;46.21;96718.58;1685856;84;21592;-62
2022/10/27 10:18:26;;;;;;;2.85;1.85;;;;;;;20.98;45.19;96725.33;1706320;83;21505;-62
2022/10/27 10:21:09;;;;;;;2.70;1.37;;;;;;;21.45;44.96;96721.13;1708936;83;21041;-62
2022/10/27 10:23:52;;;;;;;3.33;1.62;;;;;;;21.76;45.73;96719.28;1674336;84;21040;-62
2022/10/27 10:26:23;;;;;;;4.20;1.85;;;;;;;22.15;44.69;96718.38;1685734;85;21048;-62
2022/10/27 10:28:54;;;;;;;6.70;2.72;;;;;;;22.50;43.64;96709.16;1680868;85;21058;-62
2022/10/27 10:31:27;;;;;;;3.87;1.50;;;;;;;22.72;42.29;96699.09;1680750;85;21561;-63
2022/10/27 10:34:05;;;;;;;1.20;1.10;;;;;;;23.08;42.58;96700.92;1683062;85;21046;-62
2022/10/27 10:36:37;;;;;;;3.65;1.47;;;;;;;23.24;41.22;96696.99;1680084;84;21051;-62
2022/10/27 10:39:24;;;;;;;3.22;1.85;;;;;;;23.35;40.69;96701.34;1683445;85;21090;-63
2022/10/27 10:42:13;;;;;;;1.40;1.30;;;;;;;23.47;40.06;96701.19;1689741;84;21055;-62
2022/10/27 10:44:40;;;;;;;2.10;1.32;;;;;;;23.63;38.43;96700.75;1680970;84;21050;-62
2022/10/27 10:47:28;;;;;;;4.17;1.20;;;;;;;23.81;38.87;96702.97;1684532;84;21071;-62
2022/10/27 10:49:59;;;;;;;1.82;1.05;;;;;;;24.10;39.79;96699.20;1682251;84;21628;-62
2022/10/27 10:52:37;;;;;;;1.98;1.32;;;;;;;24.18;37.86;96707.24;1681057;85;21051;-62
2022/10/27 10:55:34;;;;;;;3.15;1.35;;;;;;;24.49;38.43;96696.11;1684033;85;21802;-62
2022/10/27 10:58:02;;;;;;;3.50;1.35;;;;;;;24.63;37.60;96703.94;1682491;84;21047;-62
2022/10/27 11:00:29;;;;;;;2.58;1.60;;;;;;;25.01;37.42;96697.66;1681635;85;21474;-62
2022/10/27 11:03:07;;;;;;;2.30;1.35;;;;;;;25.42;36.57;96706.02;1678980;85;21077;-62
2022/10/27 11:05:36;;;;;;;3.33;1.50;;;;;;;25.77;36.87;96708.42;1683544;84;21159;-62
2022/10/27 11:08:04;;;;;;;4.30;1.35;;;;;;;25.82;35.48;96707.65;1681988;84;21012;-62
2022/10/27 11:10:41;;;;;;;1.67;1.30;;;;;;;25.89;34.77;96713.11;1682154;84;21101;-63
2022/10/27 11:13:23;;;;;;;2.67;1.20;;;;;;;26.15;34.90;96705.67;1680258;85;21098;-62
2022/10/27 11:16:00;;;;;;;1.60;1.00;;;;;;;26.20;34.96;96708.47;1678470;85;21584;-62
2022/10/27 11:18:38;;;;;;;2.67;1.30;;;;;;;25.73;34.58;96711.40;1680414;85;21071;-62
2022/10/27 11:21:40;;;;;;;3.15;1.40;;;;;;;25.02;36.37;96709.73;1678593;85;21095;-62
2022/10/27 11:24:24;;;;;;;2.20;1.15;;;;;;;24.75;38.65;96709.50;1682572;85;21047;-62
2022/10/27 11:27:23;;;;;;;4.75;1.50;;;;;;;24.58;36.45;96710.45;1682471;85;21537;-62
2022/10/27 11:30:04;;;;;;;2.37;1.50;;;;;;;24.35;37.30;96709.02;1676858;84;21141;-62
2022/10/27 11:32:51;;;;;;;6.78;1.72;;;;;;;23.90;38.78;96709.72;1676679;85;21051;-62
2022/10/27 11:35:42;;;;;;;5.08;1.72;;;;;;;23.71;38.57;96703.04;1681570;85;21012;-62
2022/10/27 11:38:49;;;;;;;3.12;1.87;;;;;;;23.30;39.08;96707.44;1695148;84;21121;-62
2022/10/27 11:41:24;;;;;;;1.72;1.60;;;;;;;22.91;40.37;96704.45;1682987;85;21513;-62
2022/10/27 11:44:30;;;;;;;1.60;1.47;;;;;;;23.13;39.93;96704.25;1683443;84;21043;-62
2022/10/27 11:47:05;;;;;;;2.75;2.40;;;;;;;23.17;40.03;96699.59;1687905;84;20999;-62
2022/10/27 11:49:56;;;;;;;8.08;4.80;;;;;;;23.40;39.13;96699.27;1684383;85;21004;-62
2022/10/27 11:52:37;;;;;;;5.62;2.80;;;;;;;23.30;40.15;96700.22;1686396;84;21119;-63
2022/10/27 11:55:08;;;;;;;5.12;2.25;;;;;;;23.96;39.24;96694.54;1689813;83;21095;-62
2022/10/27 11:57:58;;;;;;;4.60;2.20;;;;;;;24.53;38.42;96693.65;1683330;84;21134;-62
2022/10/27 12:00:28;;;;;;;4.58;2.02;;;;;;;24.52;37.10;96690.57;1662629;84;21004;-62